sensor_id;sensor_type;location;lat;lon;timestamp;pressure;altitude;pressure_sealevel;temperature;humidity
5877;BME280;2964;42.144;24.730;2023-10-31T00:01:53;144658.13;;;12.39;100.00
5877;BME280;2964;42.144;24.730;2023-10-31T00:04:20;144659.34;;;12.39;100.00
5877;BME280;2964;42.144;24.730;2023-10-31T00:06:47;144654.31;;;12.37;100.00
5877;BME280;2964;42.144;24.730;2023-10-31T00:09:14;144651.84;;;12.36;100.00
5877;BME280;2964;42.144;24.730;2023-10-31T00:11:41;144664.38;;;12.41;100.00
5877;BME280;2964;42.144;24.730;2023-10-31T00:14:08;144679.50;;;12.47;100.00
5877;BME280;2964;42.144;24.730;2023-10-31T00:16:35;144664.38;;;12.41;100.00
5877;BME280;2964;42.144;24.730;2023-10-31T00:19:03;144650.53;;;12.35;100.00
5877;BME280;2964;42.144;24.730;2023-10-31T00:21:30;144635.47;;;12.29;100.00
5877;BME280;2964;42.144;24.730;2023-10-31T00:23:56;144629.19;;;12.27;100.00
5877;BME280;2964;42.144;24.730;2023-10-31T00:26:23;144638.00;;;12.30;100.00
5877;BME280;2964;42.144;24.730;2023-10-31T00:28:50;144621.63;;;12.24;100.00
5877;BME280;2964;42.144;24.730;2023-10-31T00:31:17;144629.19;;;12.27;100.00
5877;BME280;2964;42.144;24.730;2023-10-31T00:33:43;144596.47;;;12.13;100.00
5877;BME280;2964;42.144;24.730;2023-10-31T00:36:10;144601.53;;;12.15;100.00
5877;BME280;2964;42.144;24.730;2023-10-31T00:38:37;144609.06;;;12.19;100.00
5877;BME280;2964;42.144;24.730;2023-10-31T00:41:04;144621.63;;;12.24;100.00
5877;BME280;2964;42.144;24.730;2023-10-31T00:43:30;144611.59;;;12.20;100.00
5877;BME280;2964;42.144;24.730;2023-10-31T00:45:57;144638.00;;;12.30;100.00
5877;BME280;2964;42.144;24.730;2023-10-31T00:48:24;144615.38;;;12.21;100.00
5877;BME280;2964;42.144;24.730;2023-10-31T00:50:50;144604.03;;;12.16;100.00
5877;BME280;2964;42.144;24.730;2023-10-31T00:53:18;144619.09;;;12.23;100.00
5877;BME280;2964;42.144;24.730;2023-10-31T00:55:45;144607.81;;;12.18;100.00
5877;BME280;2964;42.144;24.730;2023-10-31T00:58:12;144617.84;;;12.22;100.00
5877;BME280;2964;42.144;24.730;2023-10-31T01:00:38;144565.03;;;12.01;100.00
5877;BME280;2964;42.144;24.730;2023-10-31T01:03:05;144572.59;;;12.04;100.00
5877;BME280;2964;42.144;24.730;2023-10-31T01:05:32;144582.63;;;12.08;100.00
5877;BME280;2964;42.144;24.730;2023-10-31T01:07:59;144565.03;;;12.01;100.00
5877;BME280;2964;42.144;24.730;2023-10-31T01:10:27;144646.81;;;12.34;100.00
5877;BME280;2964;42.144;24.730;2023-10-31T01:12:53;144676.97;;;12.46;100.00
5877;BME280;2964;42.144;24.730;2023-10-31T01:15:20;144702.16;;;12.57;100.00
5877;BME280;2964;42.144;24.730;2023-10-31T01:17:47;144649.31;;;12.35;100.00
5877;BME280;2964;42.144;24.730;2023-10-31T01:20:14;144719.78;;;12.64;100.00
5877;BME280;2964;42.144;24.730;2023-10-31T01:22:41;144748.69;;;12.75;100.00
5877;BME280;2964;42.144;24.730;2023-10-31T01:25:07;144704.63;;;12.58;100.00
5877;BME280;2964;42.144;24.730;2023-10-31T01:27:37;144576.38;;;12.05;100.00
5877;BME280;2964;42.144;24.730;2023-10-31T01:30:04;144523.50;;;11.84;100.00
5877;BME280;2964;42.144;24.730;2023-10-31T01:32:31;144596.47;;;12.13;100.00
5877;BME280;2964;42.144;24.730;2023-10-31T01:34:58;144562.53;;;12.00;100.00
5877;BME280;2964;42.144;24.730;2023-10-31T01:37:24;144561.28;;;11.99;100.00
5877;BME280;2964;42.144;24.730;2023-10-31T01:39:52;144619.09;;;12.23;100.00
5877;BME280;2964;42.144;24.730;2023-10-31T01:42:18;144644.28;;;12.33;100.00
5877;BME280;2964;42.144;24.730;2023-10-31T01:44:46;144575.13;;;12.05;100.00
5877;BME280;2964;42.144;24.730;2023-10-31T01:47:13;144510.94;;;11.78;100.00
5877;BME280;2964;42.144;24.730;2023-10-31T01:49:40;144366.41;;;11.19;100.00
5877;BME280;2964;42.144;24.730;2023-10-31T01:52:07;144439.28;;;11.49;100.00
5877;BME280;2964;42.144;24.730;2023-10-31T01:54:34;144419.16;;;11.41;100.00
5877;BME280;2964;42.144;24.730;2023-10-31T01:57:02;144453.09;;;11.55;100.00
5877;BME280;2964;42.144;24.730;2023-10-31T01:59:30;144456.88;;;11.56;100.00
5877;BME280;2964;42.144;24.730;2023-10-31T02:02:00;144439.28;;;11.49;100.00
5877;BME280;2964;42.144;24.730;2023-10-31T02:04:27;144480.75;;;11.66;100.00
5877;BME280;2964;42.144;24.730;2023-10-31T02:06:54;144453.09;;;11.55;100.00
5877;BME280;2964;42.144;24.730;2023-10-31T02:09:21;144557.50;;;11.97;100.00
5877;BME280;2964;42.144;24.730;2023-10-31T02:11:50;144521.00;;;11.83;100.00
5877;BME280;2964;42.144;24.730;2023-10-31T02:14:16;144448.09;;;11.53;100.00
5877;BME280;2964;42.144;24.730;2023-10-31T02:16:43;144425.47;;;11.44;100.00
5877;BME280;2964;42.144;24.730;2023-10-31T02:19:12;144372.66;;;11.22;100.00
5877;BME280;2964;42.144;24.730;2023-10-31T02:21:45;144427.94;;;11.45;100.00
5877;BME280;2964;42.144;24.730;2023-10-31T02:24:12;144396.53;;;11.32;100.00
5877;BME280;2964;42.144;24.730;2023-10-31T02:26:38;144427.94;;;11.45;100.00
5877;BME280;2964;42.144;24.730;2023-10-31T02:29:05;144411.63;;;11.38;100.00
5877;BME280;2964;42.144;24.730;2023-10-31T02:31:32;144380.22;;;11.25;100.00
5877;BME280;2964;42.144;24.730;2023-10-31T02:33:59;144367.63;;;11.20;100.00
5877;BME280;2964;42.144;24.730;2023-10-31T02:36:25;144337.47;;;11.08;100.00
5877;BME280;2964;42.144;24.730;2023-10-31T02:38:53;144329.91;;;11.05;100.00
5877;BME280;2964;42.144;24.730;2023-10-31T02:41:20;144317.38;;;10.99;100.00
5877;BME280;2964;42.144;24.730;2023-10-31T02:43:47;144285.97;;;10.87;100.00
5877;BME280;2964;42.144;24.730;2023-10-31T02:46:14;144307.28;;;10.95;100.00
5877;BME280;2964;42.144;24.730;2023-10-31T02:48:41;144299.78;;;10.92;100.00
5877;BME280;2964;42.144;24.730;2023-10-31T02:51:08;144284.69;;;10.86;100.00
5877;BME280;2964;42.144;24.730;2023-10-31T02:53:34;144316.09;;;10.99;100.00
5877;BME280;2964;42.144;24.730;2023-10-31T02:56:04;144270.88;;;10.80;100.00
5877;BME280;2964;42.144;24.730;2023-10-31T02:58:30;144235.72;;;10.66;100.00
5877;BME280;2964;42.144;24.730;2023-10-31T03:00:57;144372.66;;;11.22;100.00
5877;BME280;2964;42.144;24.730;2023-10-31T03:03:24;144317.38;;;10.99;100.00
5877;BME280;2964;42.144;24.730;2023-10-31T03:05:50;144298.50;;;10.92;100.00
5877;BME280;2964;42.144;24.730;2023-10-31T03:08:17;144308.59;;;10.96;100.00
5877;BME280;2964;42.144;24.730;2023-10-31T03:10:47;144254.56;;;10.74;100.00
5877;BME280;2964;42.144;24.730;2023-10-31T03:13:17;144262.06;;;10.77;100.00
5877;BME280;2964;42.144;24.730;2023-10-31T03:15:43;144292.22;;;10.89;100.00
5877;BME280;2964;42.144;24.730;2023-10-31T03:18:10;144332.44;;;11.06;100.00
5877;BME280;2964;42.144;24.730;2023-10-31T03:20:37;144332.44;;;11.06;100.00
5877;BME280;2964;42.144;24.730;2023-10-31T03:23:03;144282.19;;;10.85;100.00
5877;BME280;2964;42.144;24.730;2023-10-31T03:25:30;144243.22;;;10.69;100.00
5877;BME280;2964;42.144;24.730;2023-10-31T03:27:57;144253.25;;;10.73;100.00
5877;BME280;2964;42.144;24.730;2023-10-31T03:30:25;144218.13;;;10.59;100.00
5877;BME280;2964;42.144;24.730;2023-10-31T03:32:52;144226.94;;;10.62;100.00
5877;BME280;2964;42.144;24.730;2023-10-31T03:35:18;144176.66;;;10.42;100.00
5877;BME280;2964;42.144;24.730;2023-10-31T03:37:45;144150.31;;;10.31;100.00
5877;BME280;2964;42.144;24.730;2023-10-31T03:40:12;144200.53;;;10.52;100.00
5877;BME280;2964;42.144;24.730;2023-10-31T03:42:39;144177.94;;;10.42;100.00
5877;BME280;2964;42.144;24.730;2023-10-31T03:45:06;144190.50;;;10.48;100.00
5877;BME280;2964;42.144;24.730;2023-10-31T03:47:35;144103.78;;;10.12;100.00
5877;BME280;2964;42.144;24.730;2023-10-31T03:50:01;144154.03;;;10.33;100.00
5877;BME280;2964;42.144;24.730;2023-10-31T03:52:28;144176.66;;;10.42;100.00
5877;BME280;2964;42.144;24.730;2023-10-31T03:54:55;144181.72;;;10.44;100.00
5877;BME280;2964;42.144;24.730;2023-10-31T03:57:22;144220.63;;;10.60;100.00
5877;BME280;2964;42.144;24.730;2023-10-31T03:59:48;144218.13;;;10.59;100.00
5877;BME280;2964;42.144;24.730;2023-10-31T04:02:15;144141.47;;;10.28;100.00
5877;BME280;2964;42.144;24.730;2023-10-31T04:04:43;144116.34;;;10.17;100.00
5877;BME280;2964;42.144;24.730;2023-10-31T04:07:10;144101.28;;;10.11;100.00
5877;BME280;2964;42.144;24.730;2023-10-31T04:09:36;144138.94;;;10.27;100.00
5877;BME280;2964;42.144;24.730;2023-10-31T04:12:03;144142.72;;;10.28;100.00
5877;BME280;2964;42.144;24.730;2023-10-31T04:14:30;144076.16;;;10.01;100.00
5877;BME280;2964;42.144;24.730;2023-10-31T04:16:57;144081.16;;;10.03;100.00
5877;BME280;2964;42.144;24.730;2023-10-31T04:19:24;144076.16;;;10.01;100.00
5877;BME280;2964;42.144;24.730;2023-10-31T04:21:53;144084.94;;;10.04;100.00
5877;BME280;2964;42.144;24.730;2023-10-31T04:24:20;144105.06;;;10.13;100.00
5877;BME280;2964;42.144;24.730;2023-10-31T04:26:47;144159.09;;;10.35;100.00
5877;BME280;2964;42.144;24.730;2023-10-31T04:29:13;144143.97;;;10.29;100.00
5877;BME280;2964;42.144;24.730;2023-10-31T04:31:40;144063.59;;;9.96;100.00
5877;BME280;2964;42.144;24.730;2023-10-31T04:34:07;144056.09;;;9.93;100.00
5877;BME280;2964;42.144;24.730;2023-10-31T04:36:34;144028.47;;;9.81;100.00
5877;BME280;2964;42.144;24.730;2023-10-31T04:39:02;144024.69;;;9.80;100.00
5877;BME280;2964;42.144;24.730;2023-10-31T04:41:29;144007.13;;;9.73;100.00
5877;BME280;2964;42.144;24.730;2023-10-31T04:43:56;144017.16;;;9.77;100.00
5877;BME280;2964;42.144;24.730;2023-10-31T04:46:24;144041.00;;;9.86;100.00
5877;BME280;2964;42.144;24.730;2023-10-31T04:48:52;144059.88;;;9.94;100.00
5877;BME280;2964;42.144;24.730;2023-10-31T04:51:19;144067.38;;;9.97;100.00
5877;BME280;2964;42.144;24.730;2023-10-31T04:53:45;144044.75;;;9.88;100.00
5877;BME280;2964;42.144;24.730;2023-10-31T04:56:14;143993.31;;;9.67;100.00
5877;BME280;2964;42.144;24.730;2023-10-31T04:58:41;143945.59;;;9.47;100.00
5877;BME280;2964;42.144;24.730;2023-10-31T05:01:09;143987.00;;;9.64;100.00
5877;BME280;2964;42.144;24.730;2023-10-31T05:03:36;144003.34;;;9.71;100.00
5877;BME280;2964;42.144;24.730;2023-10-31T05:06:03;143965.72;;;9.56;100.00
5877;BME280;2964;42.144;24.730;2023-10-31T05:08:30;143960.69;;;9.54;100.00
5877;BME280;2964;42.144;24.730;2023-10-31T05:10:57;143987.00;;;9.64;100.00
5877;BME280;2964;42.144;24.730;2023-10-31T05:13:25;144030.97;;;9.82;100.00
5877;BME280;2964;42.144;24.730;2023-10-31T05:15:52;143992.06;;;9.66;100.00
5877;BME280;2964;42.144;24.730;2023-10-31T05:18:19;144019.69;;;9.78;100.00
5877;BME280;2964;42.144;24.730;2023-10-31T05:20:45;144019.69;;;9.78;100.00
5877;BME280;2964;42.144;24.730;2023-10-31T05:23:12;144030.97;;;9.82;100.00
5877;BME280;2964;42.144;24.730;2023-10-31T05:25:39;144078.69;;;10.02;100.00
5877;BME280;2964;42.144;24.730;2023-10-31T05:28:05;144068.66;;;9.98;100.00
5877;BME280;2964;42.144;24.730;2023-10-31T05:30:34;144105.06;;;10.13;100.00
5877;BME280;2964;42.144;24.730;2023-10-31T05:33:00;144171.63;;;10.40;100.00
5877;BME280;2964;42.144;24.730;2023-10-31T05:35:27;144142.72;;;10.28;100.00
5877;BME280;2964;42.144;24.730;2023-10-31T05:37:54;144160.34;;;10.35;100.00
5877;BME280;2964;42.144;24.730;2023-10-31T05:40:20;144190.50;;;10.48;100.00
5877;BME280;2964;42.144;24.730;2023-10-31T05:42:50;144226.94;;;10.62;100.00
5877;BME280;2964;42.144;24.730;2023-10-31T05:45:17;144214.34;;;10.57;100.00
5877;BME280;2964;42.144;24.730;2023-10-31T05:47:45;144239.44;;;10.68;100.00
5877;BME280;2964;42.144;24.730;2023-10-31T05:50:11;144249.53;;;10.72;100.00
5877;BME280;2964;42.144;24.730;2023-10-31T05:52:38;144326.19;;;11.03;100.00
5877;BME280;2964;42.144;24.730;2023-10-31T05:55:06;144292.22;;;10.89;100.00
5877;BME280;2964;42.144;24.730;2023-10-31T05:57:32;144314.84;;;10.98;100.00
5877;BME280;2964;42.144;24.730;2023-10-31T05:59:59;144316.09;;;10.99;100.00
5877;BME280;2964;42.144;24.730;2023-10-31T06:02:26;144309.81;;;10.96;100.00
5877;BME280;2964;42.144;24.730;2023-10-31T06:04:55;144351.28;;;11.13;100.00
5877;BME280;2964;42.144;24.730;2023-10-31T06:07:22;144390.25;;;11.29;100.00
5877;BME280;2964;42.144;24.730;2023-10-31T06:09:49;144427.94;;;11.45;100.00
5877;BME280;2964;42.144;24.730;2023-10-31T06:12:15;144421.69;;;11.42;100.00
5877;BME280;2964;42.144;24.730;2023-10-31T06:14:42;144453.09;;;11.55;100.00
5877;BME280;2964;42.144;24.730;2023-10-31T06:17:09;144445.56;;;11.52;100.00
5877;BME280;2964;42.144;24.730;2023-10-31T06:19:36;144476.97;;;11.65;100.00
5877;BME280;2964;42.144;24.730;2023-10-31T06:22:04;144471.97;;;11.63;100.00
5877;BME280;2964;42.144;24.730;2023-10-31T06:24:31;144453.09;;;11.55;100.00
5877;BME280;2964;42.144;24.730;2023-10-31T06:26:57;144435.50;;;11.48;100.00
5877;BME280;2964;42.144;24.730;2023-10-31T06:29:24;144537.31;;;11.89;100.00
5877;BME280;2964;42.144;24.730;2023-10-31T06:31:51;144546.16;;;11.93;100.00
5877;BME280;2964;42.144;24.730;2023-10-31T06:34:17;144571.34;;;12.03;100.00
5877;BME280;2964;42.144;24.730;2023-10-31T06:36:44;144620.41;;;12.23;100.00
5877;BME280;2964;42.144;24.730;2023-10-31T06:39:12;144670.69;;;12.44;100.00
5877;BME280;2964;42.144;24.730;2023-10-31T06:41:39;144640.50;;;12.31;100.00
5877;BME280;2964;42.144;24.730;2023-10-31T06:44:05;144689.56;;;12.51;100.00
5877;BME280;2964;42.144;24.730;2023-10-31T06:46:32;144812.84;;;13.02;98.96
5877;BME280;2964;42.144;24.730;2023-10-31T06:48:59;144869.50;;;13.25;97.71
5877;BME280;2964;42.144;24.730;2023-10-31T06:51:25;144863.19;;;13.22;98.23
5877;BME280;2964;42.144;24.730;2023-10-31T06:53:52;144935.00;;;13.51;96.16
5877;BME280;2964;42.144;24.730;2023-10-31T06:56:20;144901.03;;;13.38;96.87
5877;BME280;2964;42.144;24.730;2023-10-31T06:58:47;144858.16;;;13.20;98.28
5877;BME280;2964;42.144;24.730;2023-10-31T07:01:14;144965.25;;;13.64;96.40
5877;BME280;2964;42.144;24.730;2023-10-31T07:03:43;145013.09;;;13.83;95.38
5877;BME280;2964;42.144;24.730;2023-10-31T07:06:10;144961.44;;;13.62;96.56
5877;BME280;2964;42.144;24.730;2023-10-31T07:08:36;145006.78;;;13.81;96.90
5877;BME280;2964;42.144;24.730;2023-10-31T07:11:03;145054.66;;;14.00;95.74
5877;BME280;2964;42.144;24.730;2023-10-31T07:13:31;145060.94;;;14.03;95.19
5877;BME280;2964;42.144;24.730;2023-10-31T07:15:58;145039.50;;;13.94;95.83
5877;BME280;2964;42.144;24.730;2023-10-31T07:18:24;145175.56;;;14.49;94.13
5877;BME280;2964;42.144;24.730;2023-10-31T07:20:51;145252.47;;;14.81;91.33
5877;BME280;2964;42.144;24.730;2023-10-31T07:23:18;145318.03;;;15.08;91.55
5877;BME280;2964;42.144;24.730;2023-10-31T07:25:44;145263.84;;;14.85;92.21
5877;BME280;2964;42.144;24.730;2023-10-31T07:28:11;145314.25;;;15.06;91.57
5877;BME280;2964;42.144;24.730;2023-10-31T07:30:39;145344.50;;;15.18;91.52
5877;BME280;2964;42.144;24.730;2023-10-31T07:33:06;145286.53;;;14.95;92.58
5877;BME280;2964;42.144;24.730;2023-10-31T07:35:33;145278.94;;;14.92;92.97
5877;BME280;2964;42.144;24.730;2023-10-31T07:37:59;145289.06;;;14.96;92.93
5877;BME280;2964;42.144;24.730;2023-10-31T07:40:26;145330.66;;;15.13;92.69
5877;BME280;2964;42.144;24.730;2023-10-31T07:42:53;145442.81;;;15.58;90.59
5877;BME280;2964;42.144;24.730;2023-10-31T07:45:19;145497.09;;;15.80;89.87
5877;BME280;2964;42.144;24.730;2023-10-31T07:47:48;145511.03;;;15.86;89.10
5877;BME280;2964;42.144;24.730;2023-10-31T07:50:14;145533.72;;;15.95;88.73
5877;BME280;2964;42.144;24.730;2023-10-31T07:52:41;145503.44;;;15.83;88.81
5877;BME280;2964;42.144;24.730;2023-10-31T07:55:09;145561.47;;;16.07;89.39
5877;BME280;2964;42.144;24.730;2023-10-31T07:57:36;145601.84;;;16.23;88.75
5877;BME280;2964;42.144;24.730;2023-10-31T08:00:04;145606.88;;;16.25;88.10
5877;BME280;2964;42.144;24.730;2023-10-31T08:02:31;145594.25;;;16.20;88.46
5877;BME280;2964;42.144;24.730;2023-10-31T08:04:59;145634.63;;;16.36;87.98
5877;BME280;2964;42.144;24.730;2023-10-31T08:07:26;145738.13;;;16.78;87.08
5877;BME280;2964;42.144;24.730;2023-10-31T08:09:55;145779.81;;;16.95;86.59
5877;BME280;2964;42.144;24.730;2023-10-31T08:12:22;145810.06;;;17.08;86.27
5877;BME280;2964;42.144;24.730;2023-10-31T08:14:49;145851.78;;;17.25;85.53
5877;BME280;2964;42.144;24.730;2023-10-31T08:17:15;145898.47;;;17.44;84.59
5877;BME280;2964;42.144;24.730;2023-10-31T08:19:42;145821.47;;;17.12;83.64
5877;BME280;2964;42.144;24.730;2023-10-31T08:22:10;145829.03;;;17.15;83.65
5877;BME280;2964;42.144;24.730;2023-10-31T08:24:37;145802.53;;;17.05;83.66
5877;BME280;2964;42.144;24.730;2023-10-31T08:27:04;145836.59;;;17.18;84.14
5877;BME280;2964;42.144;24.730;2023-10-31T08:29:32;145911.09;;;17.49;83.48
5877;BME280;2964;42.144;24.730;2023-10-31T08:31:59;146056.41;;;18.08;81.41
5877;BME280;2964;42.144;24.730;2023-10-31T08:34:26;146129.69;;;18.38;81.06
5877;BME280;2964;42.144;24.730;2023-10-31T08:36:52;146134.72;;;18.40;79.34
5877;BME280;2964;42.144;24.730;2023-10-31T08:39:23;146152.44;;;18.47;79.65
5877;BME280;2964;42.144;24.730;2023-10-31T08:41:50;146287.72;;;19.02;78.51
5877;BME280;2964;42.144;24.730;2023-10-31T08:44:17;146430.59;;;19.60;76.44
5877;BME280;2964;42.144;24.730;2023-10-31T08:46:44;146428.09;;;19.59;75.59
5877;BME280;2964;42.144;24.730;2023-10-31T08:49:11;146468.56;;;19.75;73.99
5877;BME280;2964;42.144;24.730;2023-10-31T08:51:38;146492.63;;;19.85;73.85
5877;BME280;2964;42.144;24.730;2023-10-31T08:54:05;146544.47;;;20.06;72.80
5877;BME280;2964;42.144;24.730;2023-10-31T08:56:33;146660.91;;;20.53;71.88
5877;BME280;2964;42.144;24.730;2023-10-31T08:59:00;147114.38;;;22.37;67.28
5877;BME280;2964;42.144;24.730;2023-10-31T09:01:27;147517.66;;;24.00;62.37
5877;BME280;2964;42.144;24.730;2023-10-31T09:03:55;147732.16;;;24.87;57.86
5877;BME280;2964;42.144;24.730;2023-10-31T09:06:23;148075.09;;;26.26;54.30
5877;BME280;2964;42.144;24.730;2023-10-31T09:08:50;148165.38;;;26.62;51.36
5877;BME280;2964;42.144;24.730;2023-10-31T09:11:17;149094.34;;;30.37;42.33
5877;BME280;2964;42.144;24.730;2023-10-31T09:13:45;149606.81;;;32.43;34.03
5877;BME280;2964;42.144;24.730;2023-10-31T09:16:11;149812.28;;;33.26;32.18
5877;BME280;2964;42.144;24.730;2023-10-31T09:18:39;150013.94;;;34.07;30.05
5877;BME280;2964;42.144;24.730;2023-10-31T09:21:05;150408.66;;;35.66;28.80
5877;BME280;2964;42.144;24.730;2023-10-31T09:23:32;150807.63;;;37.26;25.75
5877;BME280;2964;42.144;24.730;2023-10-31T09:25:59;150743.63;;;37.00;25.25
5877;BME280;2964;42.144;24.730;2023-10-31T09:28:25;150441.94;;;35.79;25.68
5877;BME280;2964;42.144;24.730;2023-10-31T09:30:53;150504.53;;;36.04;24.26
5877;BME280;2964;42.144;24.730;2023-10-31T09:33:21;150455.97;;;35.85;24.79
5877;BME280;2964;42.144;24.730;2023-10-31T09:35:47;150770.44;;;37.11;23.53
5877;BME280;2964;42.144;24.730;2023-10-31T09:38:14;150845.94;;;37.41;22.75
5877;BME280;2964;42.144;24.730;2023-10-31T09:40:41;150591.50;;;36.39;24.53
5877;BME280;2964;42.144;24.730;2023-10-31T09:43:08;150470.03;;;35.90;24.36
5877;BME280;2964;42.144;24.730;2023-10-31T09:45:35;150687.34;;;36.78;24.16
5877;BME280;2964;42.144;24.730;2023-10-31T09:48:03;150865.13;;;37.49;22.39
5877;BME280;2964;42.144;24.730;2023-10-31T09:50:30;150729.56;;;36.95;22.44
5877;BME280;2964;42.144;24.730;2023-10-31T09:52:57;150568.50;;;36.30;23.18
5877;BME280;2964;42.144;24.730;2023-10-31T09:55:26;149748.44;;;33.00;26.86
5877;BME280;2964;42.144;24.730;2023-10-31T09:57:53;149007.72;;;30.02;31.36
5877;BME280;2964;42.144;24.730;2023-10-31T10:00:20;148413.28;;;27.62;35.13
5877;BME280;2964;42.144;24.730;2023-10-31T10:02:47;148131.00;;;26.48;38.64
5877;BME280;2964;42.144;24.730;2023-10-31T10:05:16;147935.31;;;25.69;40.33
5877;BME280;2964;42.144;24.730;2023-10-31T10:07:43;147532.88;;;24.06;44.12
5877;BME280;2964;42.144;24.730;2023-10-31T10:10:10;147374.28;;;23.42;46.99
5877;BME280;2964;42.144;24.730;2023-10-31T10:12:37;147165.09;;;22.58;49.32
5877;BME280;2964;42.144;24.730;2023-10-31T10:15:04;146850.84;;;21.30;52.94
5877;BME280;2964;42.144;24.730;2023-10-31T10:17:32;146795.09;;;21.08;54.19
5877;BME280;2964;42.144;24.730;2023-10-31T10:20:06;146820.44;;;21.18;54.48
5877;BME280;2964;42.144;24.730;2023-10-31T10:22:37;146781.19;;;21.02;55.45
5877;BME280;2964;42.144;24.730;2023-10-31T10:25:06;146714.06;;;20.75;55.69
5877;BME280;2964;42.144;24.730;2023-10-31T10:27:32;146698.91;;;20.69;56.32
5877;BME280;2964;42.144;24.730;2023-10-31T10:29:59;146663.41;;;20.54;56.66
5877;BME280;2964;42.144;24.730;2023-10-31T10:32:26;146644.44;;;20.47;57.09
5877;BME280;2964;42.144;24.730;2023-10-31T10:34:54;146645.69;;;20.47;56.85
5877;BME280;2964;42.144;24.730;2023-10-31T10:37:21;146607.75;;;20.32;57.78
5877;BME280;2964;42.144;24.730;2023-10-31T10:39:51;146635.56;;;20.43;58.12
5877;BME280;2964;42.144;24.730;2023-10-31T10:42:31;146645.69;;;20.47;57.64
5877;BME280;2964;42.144;24.730;2023-10-31T10:45:02;146638.13;;;20.44;57.92
5877;BME280;2964;42.144;24.730;2023-10-31T10:47:31;146640.63;;;20.45;57.62
5877;BME280;2964;42.144;24.730;2023-10-31T10:49:59;146649.50;;;20.49;57.59
5877;BME280;2964;42.144;24.730;2023-10-31T10:52:29;146667.22;;;20.56;57.87
5877;BME280;2964;42.144;24.730;2023-10-31T10:55:03;146676.06;;;20.59;57.68
5877;BME280;2964;42.144;24.730;2023-10-31T10:57:37;146664.72;;;20.55;57.79
5877;BME280;2964;42.144;24.730;2023-10-31T11:00:06;146649.50;;;20.49;57.35
5877;BME280;2964;42.144;24.730;2023-10-31T11:02:39;146655.84;;;20.51;57.10
5877;BME280;2964;42.144;24.730;2023-10-31T11:05:08;146697.66;;;20.68;57.14
5877;BME280;2964;42.144;24.730;2023-10-31T11:07:36;146679.94;;;20.61;57.09
5877;BME280;2964;42.144;24.730;2023-10-31T11:10:05;146697.66;;;20.68;57.39
5877;BME280;2964;42.144;24.730;2023-10-31T11:12:33;146709.00;;;20.73;57.10
5877;BME280;2964;42.144;24.730;2023-10-31T11:15:01;146631.78;;;20.41;57.03
5877;BME280;2964;42.144;24.730;2023-10-31T11:17:31;146719.19;;;20.77;57.12
5877;BME280;2964;42.144;24.730;2023-10-31T11:19:58;146726.75;;;20.80;56.92
5877;BME280;2964;42.144;24.730;2023-10-31T11:22:25;146745.72;;;20.88;56.68
5877;BME280;2964;42.144;24.730;2023-10-31T11:24:52;146731.81;;;20.82;56.64
5877;BME280;2964;42.144;24.730;2023-10-31T11:27:20;146743.22;;;20.87;56.72
5877;BME280;2964;42.144;24.730;2023-10-31T11:29:47;146719.19;;;20.77;56.97
5877;BME280;2964;42.144;24.730;2023-10-31T11:32:14;146716.63;;;20.76;57.17
5877;BME280;2964;42.144;24.730;2023-10-31T11:34:41;146757.13;;;20.92;56.47
5877;BME280;2964;42.144;24.730;2023-10-31T11:37:19;146764.75;;;20.95;56.96
5877;BME280;2964;42.144;24.730;2023-10-31T11:40:22;146791.28;;;21.06;56.09
5877;BME280;2964;42.144;24.730;2023-10-31T11:42:51;146819.19;;;21.17;56.40
5877;BME280;2964;42.144;24.730;2023-10-31T11:45:27;146833.13;;;21.23;55.48
5877;BME280;2964;42.144;24.730;2023-10-31T11:47:54;146845.75;;;21.28;54.94
5877;BME280;2964;42.144;24.730;2023-10-31T11:50:22;146843.22;;;21.27;54.70
5877;BME280;2964;42.144;24.730;2023-10-31T11:53:03;146853.34;;;21.31;54.95
5877;BME280;2964;42.144;24.730;2023-10-31T11:55:32;146852.09;;;21.31;55.06
5877;BME280;2964;42.144;24.730;2023-10-31T11:58:16;146795.09;;;21.08;53.99
5877;BME280;2964;42.144;24.730;2023-10-31T12:00:44;146855.91;;;21.32;54.05
5877;BME280;2964;42.144;24.730;2023-10-31T12:03:11;146858.41;;;21.33;53.50
5877;BME280;2964;42.144;24.730;2023-10-31T12:05:38;146873.63;;;21.39;53.51
5877;BME280;2964;42.144;24.730;2023-10-31T12:08:05;146899.00;;;21.50;53.56
5877;BME280;2964;42.144;24.730;2023-10-31T12:10:32;146888.88;;;21.46;53.56
5877;BME280;2964;42.144;24.730;2023-10-31T12:12:58;146877.41;;;21.41;53.65
5877;BME280;2964;42.144;24.730;2023-10-31T12:15:26;146868.53;;;21.37;53.83
5877;BME280;2964;42.144;24.730;2023-10-31T12:17:58;146866.03;;;21.36;53.83
5877;BME280;2964;42.144;24.730;2023-10-31T12:20:25;146860.97;;;21.34;53.47
5877;BME280;2964;42.144;24.730;2023-10-31T12:23:01;146848.28;;;21.29;53.55
5877;BME280;2964;42.144;24.730;2023-10-31T12:25:29;146855.91;;;21.32;53.62
5877;BME280;2964;42.144;24.730;2023-10-31T12:27:58;146855.91;;;21.32;53.42
5877;BME280;2964;42.144;24.730;2023-10-31T12:30:24;146869.84;;;21.38;53.58
5877;BME280;2964;42.144;24.730;2023-10-31T12:32:55;146893.94;;;21.48;53.16
5877;BME280;2964;42.144;24.730;2023-10-31T12:35:24;146905.28;;;21.52;53.05
5877;BME280;2964;42.144;24.730;2023-10-31T12:37:52;146912.91;;;21.55;52.79
5877;BME280;2964;42.144;24.730;2023-10-31T12:40:21;146929.41;;;21.62;52.44
5877;BME280;2964;42.144;24.730;2023-10-31T12:42:49;146939.53;;;21.66;52.32
5877;BME280;2964;42.144;24.730;2023-10-31T12:45:17;146942.06;;;21.67;52.26
5877;BME280;2964;42.144;24.730;2023-10-31T12:47:44;146959.75;;;21.74;51.84
5877;BME280;2964;42.144;24.730;2023-10-31T12:50:14;146961.06;;;21.75;51.98
5877;BME280;2964;42.144;24.730;2023-10-31T12:52:48;146961.06;;;21.75;51.51
5877;BME280;2964;42.144;24.730;2023-10-31T12:55:18;146975.00;;;21.81;51.25
5877;BME280;2964;42.144;24.730;2023-10-31T12:57:44;146956.00;;;21.73;51.18